sensor_id;sensor_type;location;lat;lon;timestamp;pressure;altitude;pressure_sealevel;temperature;humidity
18275;BME280;19470;49.322;7.218;2023-01-29T00:00:12;99930.06;;;6.51;63.59
18275;BME280;19470;49.322;7.218;2023-01-29T00:02:39;99929.22;;;6.65;63.16
18275;BME280;19470;49.322;7.218;2023-01-29T00:05:06;99928.72;;;6.40;64.50
18275;BME280;19470;49.322;7.218;2023-01-29T00:07:33;99932.53;;;6.08;64.73
18275;BME280;19470;49.322;7.218;2023-01-29T00:10:00;99930.94;;;5.32;66.65
18275;BME280;19470;49.322;7.218;2023-01-29T00:12:26;99928.34;;;5.84;65.85
18275;BME280;19470;49.322;7.218;2023-01-29T00:14:53;99932.44;;;6.31;63.17
18275;BME280;19470;49.322;7.218;2023-01-29T00:17:21;99926.50;;;6.59;63.32
18275;BME280;19470;49.322;7.218;2023-01-29T00:19:47;99925.38;;;6.32;63.46
18275;BME280;19470;49.322;7.218;2023-01-29T00:22:14;99920.47;;;6.14;65.52
18275;BME280;19470;49.322;7.218;2023-01-29T00:28:01;99918.13;;;5.52;66.70
18275;BME280;19470;49.322;7.218;2023-01-29T00:30:28;99911.00;;;5.60;68.08
18275;BME280;19470;49.322;7.218;2023-01-29T00:32:56;99906.38;;;6.51;63.70
18275;BME280;19470;49.322;7.218;2023-01-29T00:35:22;99902.06;;;5.99;66.11
18275;BME280;19470;49.322;7.218;2023-01-29T00:37:49;99905.03;;;6.40;65.30
18275;BME280;19470;49.322;7.218;2023-01-29T00:40:16;99908.78;;;6.17;65.52
18275;BME280;19470;49.322;7.218;2023-01-29T00:42:43;99908.22;;;6.36;65.12
18275;BME280;19470;49.322;7.218;2023-01-29T00:45:27;99904.25;;;5.43;68.86
18275;BME280;19470;49.322;7.218;2023-01-29T00:47:53;99909.44;;;5.51;68.53
18275;BME280;19470;49.322;7.218;2023-01-29T00:50:21;99900.88;;;6.02;67.39
18275;BME280;19470;49.322;7.218;2023-01-29T00:52:48;99901.88;;;5.10;69.21
18275;BME280;19470;49.322;7.218;2023-01-29T00:55:16;99900.63;;;5.44;68.07
18275;BME280;19470;49.322;7.218;2023-01-29T00:57:42;99903.94;;;5.23;69.83
18275;BME280;19470;49.322;7.218;2023-01-29T01:00:12;99908.00;;;5.63;68.00
18275;BME280;19470;49.322;7.218;2023-01-29T01:02:39;99909.72;;;5.19;70.01
18275;BME280;19470;49.322;7.218;2023-01-29T01:05:24;99905.75;;;5.90;67.09
18275;BME280;19470;49.322;7.218;2023-01-29T01:07:52;99905.59;;;5.92;67.84
18275;BME280;19470;49.322;7.218;2023-01-29T01:10:21;99911.56;;;5.33;70.33
18275;BME280;19470;49.322;7.218;2023-01-29T01:12:48;99914.09;;;5.79;67.89
18275;BME280;19470;49.322;7.218;2023-01-29T01:15:16;99916.34;;;5.82;68.56
18275;BME280;19470;49.322;7.218;2023-01-29T01:17:43;99927.25;;;6.38;65.55
18275;BME280;19470;49.322;7.218;2023-01-29T01:20:10;99928.00;;;6.32;65.40
18275;BME280;19470;49.322;7.218;2023-01-29T01:22:38;99917.06;;;5.76;66.94
18275;BME280;19470;49.322;7.218;2023-01-29T01:25:05;99923.78;;;6.52;64.74
18275;BME280;19470;49.322;7.218;2023-01-29T01:27:32;99919.47;;;6.00;66.71
18275;BME280;19470;49.322;7.218;2023-01-29T01:30:02;99915.75;;;6.09;65.80
18275;BME280;19470;49.322;7.218;2023-01-29T01:32:29;99917.53;;;6.38;65.19
18275;BME280;19470;49.322;7.218;2023-01-29T01:34:55;99932.84;;;5.61;66.83
18275;BME280;19470;49.322;7.218;2023-01-29T01:37:22;99933.09;;;6.04;65.63
18275;BME280;19470;49.322;7.218;2023-01-29T01:39:49;99925.47;;;5.56;66.82
18275;BME280;19470;49.322;7.218;2023-01-29T01:42:16;99935.78;;;6.10;65.54
18275;BME280;19470;49.322;7.218;2023-01-29T01:44:54;99926.84;;;5.29;67.22
18275;BME280;19470;49.322;7.218;2023-01-29T01:47:26;99929.34;;;5.83;65.52
18275;BME280;19470;49.322;7.218;2023-01-29T01:49:54;99930.81;;;5.48;67.22
18275;BME280;19470;49.322;7.218;2023-01-29T01:52:22;99919.47;;;5.48;65.22
18275;BME280;19470;49.322;7.218;2023-01-29T01:54:50;99927.03;;;5.66;65.82
18275;BME280;19470;49.322;7.218;2023-01-29T01:57:20;99915.09;;;6.37;63.44
18275;BME280;19470;49.322;7.218;2023-01-29T01:59:52;99915.09;;;6.37;64.15
18275;BME280;19470;49.322;7.218;2023-01-29T02:02:20;99906.50;;;6.28;64.35
18275;BME280;19470;49.322;7.218;2023-01-29T02:05:05;99900.88;;;6.02;65.27
18275;BME280;19470;49.322;7.218;2023-01-29T02:07:50;99899.59;;;6.27;64.03
18275;BME280;19470;49.322;7.218;2023-01-29T02:10:39;99895.84;;;6.51;62.68
18275;BME280;19470;49.322;7.218;2023-01-29T02:13:07;99898.41;;;6.45;62.34
18275;BME280;19470;49.322;7.218;2023-01-29T02:15:34;99891.59;;;6.50;62.50
18275;BME280;19470;49.322;7.218;2023-01-29T02:18:01;99909.59;;;5.50;66.77
18275;BME280;19470;49.322;7.218;2023-01-29T02:20:29;99904.00;;;5.68;67.28
18275;BME280;19470;49.322;7.218;2023-01-29T02:23:20;99895.06;;;5.77;66.75
18275;BME280;19470;49.322;7.218;2023-01-29T02:26:06;99895.50;;;6.25;65.36
18275;BME280;19470;49.322;7.218;2023-01-29T02:28:39;99896.88;;;5.24;67.20
18275;BME280;19470;49.322;7.218;2023-01-29T02:31:16;99895.31;;;5.82;66.07
18275;BME280;19470;49.322;7.218;2023-01-29T02:33:53;99904.25;;;5.43;65.61
18275;BME280;19470;49.322;7.218;2023-01-29T02:36:30;99895.91;;;5.92;65.64
18275;BME280;19470;49.322;7.218;2023-01-29T02:39:07;99891.56;;;5.99;64.60
18275;BME280;19470;49.322;7.218;2023-01-29T02:41:40;99893.56;;;5.45;67.41
18275;BME280;19470;49.322;7.218;2023-01-29T02:44:16;99885.53;;;5.76;67.82
18275;BME280;19470;49.322;7.218;2023-01-29T02:46:52;99882.31;;;6.03;65.88
18275;BME280;19470;49.322;7.218;2023-01-29T02:49:26;99879.09;;;6.37;64.18
18275;BME280;19470;49.322;7.218;2023-01-29T02:51:59;99867.38;;;6.25;63.40
18275;BME280;19470;49.322;7.218;2023-01-29T02:54:32;99869.56;;;5.62;64.86
18275;BME280;19470;49.322;7.218;2023-01-29T02:57:10;99862.38;;;5.94;65.40
18275;BME280;19470;49.322;7.218;2023-01-29T02:59:49;99860.53;;;6.09;64.13
18275;BME280;19470;49.322;7.218;2023-01-29T03:02:23;99868.59;;;5.26;66.21
18275;BME280;19470;49.322;7.218;2023-01-29T03:04:55;99868.50;;;5.72;65.66
18275;BME280;19470;49.322;7.218;2023-01-29T03:07:29;99869.78;;;4.54;69.47
18275;BME280;19470;49.322;7.218;2023-01-29T03:10:12;99880.31;;;4.77;69.15
18275;BME280;19470;49.322;7.218;2023-01-29T03:12:43;99876.16;;;4.83;69.26
18275;BME280;19470;49.322;7.218;2023-01-29T03:15:17;99881.38;;;4.91;68.82
18275;BME280;19470;49.322;7.218;2023-01-29T03:17:53;99879.78;;;5.43;66.32
18275;BME280;19470;49.322;7.218;2023-01-29T03:20:23;99886.41;;;5.16;68.23
18275;BME280;19470;49.322;7.218;2023-01-29T03:22:56;99883.19;;;4.59;69.62
18275;BME280;19470;49.322;7.218;2023-01-29T03:25:26;99882.44;;;5.20;67.99
18275;BME280;19470;49.322;7.218;2023-01-29T03:28:13;99891.03;;;5.36;67.59
18275;BME280;19470;49.322;7.218;2023-01-29T03:31:03;99893.97;;;5.19;68.50
18275;BME280;19470;49.322;7.218;2023-01-29T03:33:50;99898.41;;;5.18;68.92
18275;BME280;19470;49.322;7.218;2023-01-29T03:36:20;99898.59;;;5.31;67.31
18275;BME280;19470;49.322;7.218;2023-01-29T03:38:48;99898.16;;;5.28;67.66
18275;BME280;19470;49.322;7.218;2023-01-29T03:41:21;99901.13;;;5.25;67.68
18275;BME280;19470;49.322;7.218;2023-01-29T03:43:54;99903.78;;;5.39;66.81
18275;BME280;19470;49.322;7.218;2023-01-29T03:46:29;99900.44;;;4.85;69.65
18275;BME280;19470;49.322;7.218;2023-01-29T03:49:00;99890.19;;;4.75;69.66
18275;BME280;19470;49.322;7.218;2023-01-29T03:51:35;99889.06;;;4.93;68.42
18275;BME280;19470;49.322;7.218;2023-01-29T03:54:07;99895.88;;;5.25;68.68
18275;BME280;19470;49.322;7.218;2023-01-29T03:56:44;99894.16;;;4.94;69.39
18275;BME280;19470;49.322;7.218;2023-01-29T03:59:21;99905.03;;;4.83;69.97
18275;BME280;19470;49.322;7.218;2023-01-29T04:01:54;99907.47;;;5.07;68.22
18275;BME280;19470;49.322;7.218;2023-01-29T04:04:26;99906.09;;;5.20;68.15
18275;BME280;19470;49.322;7.218;2023-01-29T04:06:55;99923.22;;;4.61;70.18
18275;BME280;19470;49.322;7.218;2023-01-29T04:09:27;99916.34;;;4.83;68.75
18275;BME280;19470;49.322;7.218;2023-01-29T04:12:00;99903.41;;;4.82;69.94
18275;BME280;19470;49.322;7.218;2023-01-29T04:14:30;99902.44;;;4.75;70.40
18275;BME280;19470;49.322;7.218;2023-01-29T04:17:01;99898.16;;;4.51;69.95
18275;BME280;19470;49.322;7.218;2023-01-29T04:19:29;99896.66;;;4.25;71.89
18275;BME280;19470;49.322;7.218;2023-01-29T04:22:02;99906.38;;;4.17;74.89
18275;BME280;19470;49.322;7.218;2023-01-29T04:24:29;99910.44;;;3.64;78.76
18275;BME280;19470;49.322;7.218;2023-01-29T04:27:02;99897.34;;;4.19;76.50
18275;BME280;19470;49.322;7.218;2023-01-29T04:29:43;99895.91;;;4.08;76.90
18275;BME280;19470;49.322;7.218;2023-01-29T04:32:18;99894.13;;;4.40;76.27
18275;BME280;19470;49.322;7.218;2023-01-29T04:34:56;99879.22;;;4.41;76.13
18275;BME280;19470;49.322;7.218;2023-01-29T04:37:34;99880.63;;;3.73;78.56
18275;BME280;19470;49.322;7.218;2023-01-29T04:40:10;99875.38;;;3.73;78.12
18275;BME280;19470;49.322;7.218;2023-01-29T04:42:43;99876.44;;;3.31;80.52
18275;BME280;19470;49.322;7.218;2023-01-29T04:45:24;99876.09;;;2.85;83.64
18275;BME280;19470;49.322;7.218;2023-01-29T04:48:06;99881.34;;;3.34;81.19
18275;BME280;19470;49.322;7.218;2023-01-29T04:50:41;99882.75;;;2.63;84.43
18275;BME280;19470;49.322;7.218;2023-01-29T04:53:14;99879.38;;;3.36;82.11
18275;BME280;19470;49.322;7.218;2023-01-29T04:55:47;99880.38;;;3.27;80.81
18275;BME280;19470;49.322;7.218;2023-01-29T04:58:20;99886.28;;;3.21;80.62
18275;BME280;19470;49.322;7.218;2023-01-29T05:00:52;99889.19;;;3.42;80.07
18275;BME280;19470;49.322;7.218;2023-01-29T05:03:23;99893.31;;;3.12;82.56
18275;BME280;19470;49.322;7.218;2023-01-29T05:05:50;99892.81;;;3.08;83.26
18275;BME280;19470;49.322;7.218;2023-01-29T05:08:20;99892.78;;;3.33;82.08
18275;BME280;19470;49.322;7.218;2023-01-29T05:10:48;99892.81;;;3.25;82.31
18275;BME280;19470;49.322;7.218;2023-01-29T05:13:17;99902.28;;;2.93;83.48
18275;BME280;19470;49.322;7.218;2023-01-29T05:15:47;99901.09;;;2.71;84.60
18275;BME280;19470;49.322;7.218;2023-01-29T05:18:15;99897.72;;;3.12;83.25
18275;BME280;19470;49.322;7.218;2023-01-29T05:20:43;99900.31;;;3.36;81.37
18275;BME280;19470;49.322;7.218;2023-01-29T05:23:15;99902.63;;;2.98;83.84
18275;BME280;19470;49.322;7.218;2023-01-29T05:25:42;99892.81;;;3.17;83.21
18275;BME280;19470;49.322;7.218;2023-01-29T05:28:09;99890.97;;;3.58;80.87
18275;BME280;19470;49.322;7.218;2023-01-29T05:30:41;99894.75;;;3.47;80.84
18275;BME280;19470;49.322;7.218;2023-01-29T05:33:11;99893.38;;;3.84;79.27
18275;BME280;19470;49.322;7.218;2023-01-29T05:35:38;99895.72;;;3.63;79.41
18275;BME280;19470;49.322;7.218;2023-01-29T05:38:06;99892.44;;;3.61;80.46
18275;BME280;19470;49.322;7.218;2023-01-29T05:40:33;99889.69;;;3.38;80.29
18275;BME280;19470;49.322;7.218;2023-01-29T05:42:59;99904.84;;;2.77;84.11
18275;BME280;19470;49.322;7.218;2023-01-29T05:45:26;99899.25;;;2.47;88.09
18275;BME280;19470;49.322;7.218;2023-01-29T05:47:54;99908.91;;;2.55;87.56
18275;BME280;19470;49.322;7.218;2023-01-29T05:50:22;99897.06;;;3.18;82.40
18275;BME280;19470;49.322;7.218;2023-01-29T05:52:48;99902.25;;;2.85;83.85
18275;BME280;19470;49.322;7.218;2023-01-29T05:55:16;99901.94;;;2.88;83.29
18275;BME280;19470;49.322;7.218;2023-01-29T05:57:43;99890.16;;;3.00;82.36
18275;BME280;19470;49.322;7.218;2023-01-29T06:00:10;99885.75;;;2.85;83.58
18275;BME280;19470;49.322;7.218;2023-01-29T06:02:37;99883.63;;;3.04;81.90
18275;BME280;19470;49.322;7.218;2023-01-29T06:05:04;99887.91;;;2.97;82.04
18275;BME280;19470;49.322;7.218;2023-01-29T06:07:31;99888.00;;;2.63;83.50
18275;BME280;19470;49.322;7.218;2023-01-29T06:09:57;99891.72;;;2.36;86.09
18275;BME280;19470;49.322;7.218;2023-01-29T06:12:25;99903.50;;;2.40;87.66
18275;BME280;19470;49.322;7.218;2023-01-29T06:14:52;99904.22;;;2.75;84.21
18275;BME280;19470;49.322;7.218;2023-01-29T06:17:18;99895.69;;;2.65;85.45
18275;BME280;19470;49.322;7.218;2023-01-29T06:19:45;99885.03;;;2.50;83.36
18275;BME280;19470;49.322;7.218;2023-01-29T06:22:11;99898.50;;;2.96;82.82
18275;BME280;19470;49.322;7.218;2023-01-29T06:24:37;99902.56;;;2.66;84.19
18275;BME280;19470;49.322;7.218;2023-01-29T06:27:04;99907.84;;;2.98;82.98
18275;BME280;19470;49.322;7.218;2023-01-29T06:29:32;99903.75;;;3.28;79.96
18275;BME280;19470;49.322;7.218;2023-01-29T06:31:58;99900.63;;;3.00;81.38
18275;BME280;19470;49.322;7.218;2023-01-29T06:34:25;99899.81;;;2.84;83.08
18275;BME280;19470;49.322;7.218;2023-01-29T06:36:51;99894.75;;;2.90;82.13
18275;BME280;19470;49.322;7.218;2023-01-29T06:39:18;99892.41;;;2.63;83.95
18275;BME280;19470;49.322;7.218;2023-01-29T06:41:44;99894.75;;;2.90;83.18
18275;BME280;19470;49.322;7.218;2023-01-29T06:44:11;99901.31;;;3.02;81.79
18275;BME280;19470;49.322;7.218;2023-01-29T06:46:39;99899.34;;;3.04;82.66
18275;BME280;19470;49.322;7.218;2023-01-29T06:49:05;99892.00;;;2.33;86.43
18275;BME280;19470;49.322;7.218;2023-01-29T06:51:32;99904.13;;;1.74;88.79
18275;BME280;19470;49.322;7.218;2023-01-29T06:53:58;99906.44;;;2.03;88.65
18275;BME280;19470;49.322;7.218;2023-01-29T06:56:25;99901.78;;;2.23;88.17
18275;BME280;19470;49.322;7.218;2023-01-29T06:58:51;99889.38;;;2.25;86.61
18275;BME280;19470;49.322;7.218;2023-01-29T07:01:18;99892.91;;;2.50;86.37
18275;BME280;19470;49.322;7.218;2023-01-29T07:03:49;99880.03;;;3.14;82.83
18275;BME280;19470;49.322;7.218;2023-01-29T07:06:16;99880.53;;;2.93;82.05
18275;BME280;19470;49.322;7.218;2023-01-29T07:08:43;99891.09;;;2.50;84.52
18275;BME280;19470;49.322;7.218;2023-01-29T07:11:10;99899.56;;;2.02;86.71
18275;BME280;19470;49.322;7.218;2023-01-29T07:13:36;99907.19;;;1.61;91.34
18275;BME280;19470;49.322;7.218;2023-01-29T07:16:04;99912.41;;;2.80;84.45
18275;BME280;19470;49.322;7.218;2023-01-29T07:18:31;99917.03;;;2.01;88.68
18275;BME280;19470;49.322;7.218;2023-01-29T07:21:03;99918.31;;;2.40;86.95
18275;BME280;19470;49.322;7.218;2023-01-29T07:23:29;99910.06;;;2.61;83.44
18275;BME280;19470;49.322;7.218;2023-01-29T07:25:59;99911.94;;;2.34;86.22
18275;BME280;19470;49.322;7.218;2023-01-29T07:28:26;99908.69;;;2.32;86.11
18275;BME280;19470;49.322;7.218;2023-01-29T07:30:55;99911.75;;;2.78;83.57
18275;BME280;19470;49.322;7.218;2023-01-29T07:33:21;99911.97;;;2.42;85.67
18275;BME280;19470;49.322;7.218;2023-01-29T07:35:48;99910.84;;;2.45;85.31
18275;BME280;19470;49.322;7.218;2023-01-29T07:38:15;99921.59;;;2.34;86.68
18275;BME280;19470;49.322;7.218;2023-01-29T07:40:42;99913.78;;;2.42;85.79
18275;BME280;19470;49.322;7.218;2023-01-29T07:43:09;99922.53;;;2.24;86.13
18275;BME280;19470;49.322;7.218;2023-01-29T07:45:37;99919.53;;;2.53;84.70
18275;BME280;19470;49.322;7.218;2023-01-29T07:48:05;99912.41;;;3.04;84.05
18275;BME280;19470;49.322;7.218;2023-01-29T07:50:33;99918.22;;;2.58;84.45
18275;BME280;19470;49.322;7.218;2023-01-29T07:53:00;99920.41;;;2.70;84.61
18275;BME280;19470;49.322;7.218;2023-01-29T07:55:29;99911.94;;;3.33;81.31
18275;BME280;19470;49.322;7.218;2023-01-29T07:57:56;99919.53;;;2.53;83.95
18275;BME280;19470;49.322;7.218;2023-01-29T08:00:23;99914.16;;;2.21;86.12
18275;BME280;19470;49.322;7.218;2023-01-29T08:02:50;99921.44;;;2.43;86.27
18275;BME280;19470;49.322;7.218;2023-01-29T08:05:17;99933.19;;;2.39;86.20
18275;BME280;19470;49.322;7.218;2023-01-29T08:07:43;99930.91;;;2.36;86.27
18275;BME280;19470;49.322;7.218;2023-01-29T08:10:10;99942.19;;;2.87;83.25
18275;BME280;19470;49.322;7.218;2023-01-29T08:12:38;99951.28;;;2.67;85.53
18275;BME280;19470;49.322;7.218;2023-01-29T08:15:05;99946.47;;;3.13;87.17
18275;BME280;19470;49.322;7.218;2023-01-29T08:17:31;99950.31;;;2.76;84.89
18275;BME280;19470;49.322;7.218;2023-01-29T08:19:58;99957.31;;;2.25;88.63
18275;BME280;19470;49.322;7.218;2023-01-29T08:22:24;99962.59;;;2.84;86.88
18275;BME280;19470;49.322;7.218;2023-01-29T08:24:51;99959.06;;;3.50;84.42
18275;BME280;19470;49.322;7.218;2023-01-29T08:27:17;99946.41;;;3.94;80.85
18275;BME280;19470;49.322;7.218;2023-01-29T08:29:45;99949.69;;;3.96;81.11
18275;BME280;19470;49.322;7.218;2023-01-29T08:32:11;99946.31;;;3.55;81.55
18275;BME280;19470;49.322;7.218;2023-01-29T08:34:38;99957.09;;;3.19;83.87
18275;BME280;19470;49.322;7.218;2023-01-29T08:37:04;99954.00;;;3.16;84.22
18275;BME280;19470;49.322;7.218;2023-01-29T08:39:31;99952.00;;;3.91;80.28
18275;BME280;19470;49.322;7.218;2023-01-29T08:41:57;99944.06;;;4.86;77.63
18275;BME280;19470;49.322;7.218;2023-01-29T08:44:24;99952.06;;;4.93;74.62
18275;BME280;19470;49.322;7.218;2023-01-29T08:46:54;99943.22;;;5.54;72.38
18275;BME280;19470;49.322;7.218;2023-01-29T08:49:21;99946.22;;;5.51;73.12
18275;BME280;19470;49.322;7.218;2023-01-29T08:51:47;99944.31;;;4.99;74.86
18275;BME280;19470;49.322;7.218;2023-01-29T08:54:15;99953.03;;;5.60;72.56
18275;BME280;19470;49.322;7.218;2023-01-29T08:56:42;99943.41;;;5.53;72.64
18275;BME280;19470;49.322;7.218;2023-01-29T08:59:09;99941.84;;;6.55;68.16
18275;BME280;19470;49.322;7.218;2023-01-29T09:01:36;99941.28;;;5.71;68.65
18275;BME280;19470;49.322;7.218;2023-01-29T09:04:04;99921.59;;;6.56;66.59
18275;BME280;19470;49.322;7.218;2023-01-29T09:06:31;99918.06;;;6.85;63.57
18275;BME280;19470;49.322;7.218;2023-01-29T09:08:58;99907.16;;;7.31;62.22
18275;BME280;19470;49.322;7.218;2023-01-29T09:11:24;99906.13;;;6.68;64.93
18275;BME280;19470;49.322;7.218;2023-01-29T09:13:51;99905.22;;;7.18;64.59
18275;BME280;19470;49.322;7.218;2023-01-29T09:16:17;99905.78;;;7.13;63.58
18275;BME280;19470;49.322;7.218;2023-01-29T09:18:44;99904.53;;;7.59;61.96
18275;BME280;19470;49.322;7.218;2023-01-29T09:21:12;99896.47;;;8.36;58.53
18275;BME280;19470;49.322;7.218;2023-01-29T09:23:38;99895.72;;;8.56;57.70
18275;BME280;19470;49.322;7.218;2023-01-29T09:26:06;99896.19;;;7.55;59.94
18275;BME280;19470;49.322;7.218;2023-01-29T09:28:32;99904.66;;;8.13;57.97
18275;BME280;19470;49.322;7.218;2023-01-29T09:31:00;99908.34;;;6.85;62.31
18275;BME280;19470;49.322;7.218;2023-01-29T09:33:27;99910.56;;;8.15;58.13
18275;BME280;19470;49.322;7.218;2023-01-29T09:35:53;99911.63;;;6.87;61.75
18275;BME280;19470;49.322;7.218;2023-01-29T09:38:21;99914.13;;;7.66;58.00
18275;BME280;19470;49.322;7.218;2023-01-29T09:40:54;99919.50;;;6.66;61.93
18275;BME280;19470;49.322;7.218;2023-01-29T09:43:37;99918.66;;;7.51;60.15
18275;BME280;19470;49.322;7.218;2023-01-29T09:46:11;99925.22;;;8.25;55.40
18275;BME280;19470;49.322;7.218;2023-01-29T09:48:41;99925.72;;;8.00;58.23
18275;BME280;19470;49.322;7.218;2023-01-29T09:51:14;99920.50;;;8.55;57.06
18275;BME280;19470;49.322;7.218;2023-01-29T09:53:53;99927.09;;;7.40;58.90
18275;BME280;19470;49.322;7.218;2023-01-29T09:56:23;99911.16;;;8.11;58.17
18275;BME280;19470;49.322;7.218;2023-01-29T09:58:55;99918.75;;;7.58;59.96
18275;BME280;19470;49.322;7.218;2023-01-29T10:01:28;99921.78;;;8.24;59.90
18275;BME280;19470;49.322;7.218;2023-01-29T10:04:20;99909.56;;;8.64;55.70
18275;BME280;19470;49.322;7.218;2023-01-29T10:07:02;99904.22;;;8.44;57.59
18275;BME280;19470;49.322;7.218;2023-01-29T10:09:55;99916.03;;;8.55;56.05
18275;BME280;19470;49.322;7.218;2023-01-29T10:12:39;99913.69;;;7.91;58.22
18275;BME280;19470;49.322;7.218;2023-01-29T10:15:21;99918.25;;;8.10;57.16
18275;BME280;19470;49.322;7.218;2023-01-29T10:18:03;99918.00;;;7.00;60.68
18275;BME280;19470;49.322;7.218;2023-01-29T10:20:51;99923.66;;;6.09;65.22
18275;BME280;19470;49.322;7.218;2023-01-29T10:23:25;99930.00;;;7.24;62.76
18275;BME280;19470;49.322;7.218;2023-01-29T10:25:54;99926.13;;;7.69;59.69
18275;BME280;19470;49.322;7.218;2023-01-29T10:28:25;99932.00;;;6.28;63.42
18275;BME280;19470;49.322;7.218;2023-01-29T10:30:55;99927.00;;;6.18;65.06
18275;BME280;19470;49.322;7.218;2023-01-29T10:33:27;99917.81;;;7.44;61.24
18275;BME280;19470;49.322;7.218;2023-01-29T10:35:59;99919.44;;;6.81;61.65
18275;BME280;19470;49.322;7.218;2023-01-29T10:38:36;99912.34;;;6.81;62.24
18275;BME280;19470;49.322;7.218;2023-01-29T10:41:16;99919.19;;;6.76;62.56
18275;BME280;19470;49.322;7.218;2023-01-29T10:43:53;99922.19;;;5.92;65.80
18275;BME280;19470;49.322;7.218;2023-01-29T10:46:27;99923.38;;;6.19;63.31
18275;BME280;19470;49.322;7.218;2023-01-29T10:49:00;99915.56;;;7.69;59.82
18275;BME280;19470;49.322;7.218;2023-01-29T10:51:43;99917.47;;;8.16;58.56
18275;BME280;19470;49.322;7.218;2023-01-29T10:54:32;99908.84;;;7.66;59.40
18275;BME280;19470;49.322;7.218;2023-01-29T10:57:11;99908.41;;;7.91;58.31
18275;BME280;19470;49.322;7.218;2023-01-29T10:59:51;99898.84;;;8.25;56.69
18275;BME280;19470;49.322;7.218;2023-01-29T11:02:21;99894.56;;;8.78;56.15
18275;BME280;19470;49.322;7.218;2023-01-29T11:04:48;99885.09;;;9.37;53.25
18275;BME280;19470;49.322;7.218;2023-01-29T11:07:16;99885.72;;;7.97;56.90
18275;BME280;19470;49.322;7.218;2023-01-29T11:09:50;99887.38;;;6.92;60.99
18275;BME280;19470;49.322;7.218;2023-01-29T11:12:21;99883.69;;;6.72;63.81
18275;BME280;19470;49.322;7.218;2023-01-29T11:14:52;99880.19;;;6.86;61.88
18275;BME280;19470;49.322;7.218;2023-01-29T11:17:22;99882.41;;;8.90;55.05
18275;BME280;19470;49.322;7.218;2023-01-29T11:19:51;99868.75;;;8.74;54.93
18275;BME280;19470;49.322;7.218;2023-01-29T11:22:21;99867.19;;;7.55;58.02
18275;BME280;19470;49.322;7.218;2023-01-29T11:25:07;99859.00;;;8.13;56.70
18275;BME280;19470;49.322;7.218;2023-01-29T11:27:42;99846.88;;;9.33;52.81
18275;BME280;19470;49.322;7.218;2023-01-29T11:30:15;99834.44;;;9.40;52.48
18275;BME280;19470;49.322;7.218;2023-01-29T11:32:43;99824.63;;;8.00;55.74
18275;BME280;19470;49.322;7.218;2023-01-29T11:35:20;99820.44;;;10.49;50.27
18275;BME280;19470;49.322;7.218;2023-01-29T11:37:47;99804.38;;;8.94;52.83
18275;BME280;19470;49.322;7.218;2023-01-29T11:40:36;99797.84;;;11.03;47.48
18275;BME280;19470;49.322;7.218;2023-01-29T11:43:22;99807.78;;;8.55;53.54
18275;BME280;19470;49.322;7.218;2023-01-29T11:45:55;99795.84;;;8.86;55.58
18275;BME280;19470;49.322;7.218;2023-01-29T11:48:28;99796.97;;;10.84;48.72
18275;BME280;19470;49.322;7.218;2023-01-29T11:50:58;99793.41;;;10.40;50.26
18275;BME280;19470;49.322;7.218;2023-01-29T11:53:33;99778.75;;;12.11;46.54
18275;BME280;19470;49.322;7.218;2023-01-29T11:56:12;99787.03;;;10.80;49.28
18275;BME280;19470;49.322;7.218;2023-01-29T11:58:43;99785.34;;;10.15;48.06
18275;BME280;19470;49.322;7.218;2023-01-29T12:01:10;99777.94;;;9.14;54.07
18275;BME280;19470;49.322;7.218;2023-01-29T12:03:40;99770.47;;;9.76;55.07
18275;BME280;19470;49.322;7.218;2023-01-29T12:06:13;99765.22;;;9.63;53.60
18275;BME280;19470;49.322;7.218;2023-01-29T12:08:42;99762.97;;;10.18;52.43
18275;BME280;19470;49.322;7.218;2023-01-29T12:11:11;99768.28;;;11.43;47.94
18275;BME280;19470;49.322;7.218;2023-01-29T12:13:39;99757.00;;;13.21;43.78
18275;BME280;19470;49.322;7.218;2023-01-29T12:16:20;99752.72;;;13.67;40.94
18275;BME280;19470;49.322;7.218;2023-01-29T12:18:52;99742.97;;;14.92;38.92
18275;BME280;19470;49.322;7.218;2023-01-29T12:21:26;99755.53;;;11.33;44.63
18275;BME280;19470;49.322;7.218;2023-01-29T12:23:57;99747.19;;;9.98;51.15
18275;BME280;19470;49.322;7.218;2023-01-29T12:26:30;99748.75;;;10.51;50.46
18275;BME280;19470;49.322;7.218;2023-01-29T12:29:11;99742.91;;;12.32;46.95
18275;BME280;19470;49.322;7.218;2023-01-29T12:31:48;99734.41;;;13.71;43.22
18275;BME280;19470;49.322;7.218;2023-01-29T12:34:23;99731.84;;;14.33;40.24
18275;BME280;19470;49.322;7.218;2023-01-29T12:36:59;99738.88;;;13.30;44.17
18275;BME280;19470;49.322;7.218;2023-01-29T12:39:28;99730.38;;;12.51;43.79
18275;BME280;19470;49.322;7.218;2023-01-29T12:41:59;99735.69;;;10.99;48.12
18275;BME280;19470;49.322;7.218;2023-01-29T12:44:32;99738.69;;;10.59;48.89
18275;BME280;19470;49.322;7.218;2023-01-29T12:47:05;99727.47;;;9.36;51.95
18275;BME280;19470;49.322;7.218;2023-01-29T12:49:34;99743.00;;;6.53;62.46
18275;BME280;19470;49.322;7.218;2023-01-29T12:52:08;99718.59;;;9.68;55.11
18275;BME280;19470;49.322;7.218;2023-01-29T12:54:37;99726.91;;;10.55;51.97
18275;BME280;19470;49.322;7.218;2023-01-29T12:57:12;99715.69;;;8.06;58.29
18275;BME280;19470;49.322;7.218;2023-01-29T12:59:44;99709.34;;;9.91;54.01
18275;BME280;19470;49.322;7.218;2023-01-29T13:02:28;99711.97;;;7.32;60.36
18275;BME280;19470;49.322;7.218;2023-01-29T13:04:59;99698.81;;;7.93;58.12
18275;BME280;19470;49.322;7.218;2023-01-29T13:07:32;99697.19;;;7.99;61.18
18275;BME280;19470;49.322;7.218;2023-01-29T13:10:06;99693.75;;;7.37;60.88
18275;BME280;19470;49.322;7.218;2023-01-29T13:12:36;99687.56;;;8.53;57.95
18275;BME280;19470;49.322;7.218;2023-01-29T13:15:14;99684.06;;;8.26;58.24
18275;BME280;19470;49.322;7.218;2023-01-29T13:17:46;99697.81;;;6.49;63.09
18275;BME280;19470;49.322;7.218;2023-01-29T13:20:18;99695.88;;;6.86;62.54
18275;BME280;19470;49.322;7.218;2023-01-29T13:22:49;99685.59;;;6.91;62.43
18275;BME280;19470;49.322;7.218;2023-01-29T13:25:19;99687.19;;;7.68;61.56
18275;BME280;19470;49.322;7.218;2023-01-29T13:27:46;99684.22;;;9.17;55.32
18275;BME280;19470;49.322;7.218;2023-01-29T13:30:27;99685.13;;;8.38;57.52
18275;BME280;19470;49.322;7.218;2023-01-29T13:32:57;99681.16;;;10.66;50.89